createdAt,value
2022-12-03T00:00:12.206Z,83.52
2022-12-03T00:03:35.937Z,83.87
2022-12-03T00:07:00.452Z,83.73
2022-12-03T00:10:24.400Z,83.39
2022-12-03T00:13:46.112Z,83.37
2022-12-03T00:17:07.616Z,83.48
2022-12-03T00:20:29.191Z,83.76
2022-12-03T00:23:50.722Z,83.74
2022-12-03T00:27:14.492Z,83.78
2022-12-03T00:30:36.025Z,83.74
2022-12-03T00:33:57.695Z,82.65
2022-12-03T00:37:19.224Z,82.95
2022-12-03T00:40:41.204Z,83.52
2022-12-03T00:44:05.114Z,83.15
2022-12-03T00:47:26.662Z,83.40
2022-12-03T00:50:50.547Z,83.30
2022-12-03T00:54:12.165Z,83.24
2022-12-03T00:57:33.697Z,82.98
2022-12-03T01:00:55.222Z,83.39
2022-12-03T01:04:19.525Z,83.30
2022-12-03T01:07:43.791Z,83.34
2022-12-03T01:11:27.652Z,83.31
2022-12-03T01:14:49.290Z,83.54
2022-12-03T01:18:13.140Z,84.03
2022-12-03T01:21:37.561Z,83.31
2022-12-03T01:25:01.795Z,83.53
2022-12-03T01:28:23.312Z,83.58
2022-12-03T01:32:03.430Z,83.31
2022-12-03T01:35:25.010Z,83.34
2022-12-03T01:38:46.601Z,82.72
2022-12-03T01:42:12.935Z,82.95
2022-12-03T01:45:34.501Z,83.03
2022-12-03T01:48:56.743Z,82.27
2022-12-03T01:52:21.675Z,82.55
2022-12-03T01:55:48.822Z,82.35
2022-12-03T01:59:18.611Z,82.33
2022-12-03T02:02:42.910Z,82.57
2022-12-03T02:06:06.378Z,82.00
2022-12-03T02:09:30.377Z,81.97
2022-12-03T02:13:07.804Z,82.14
2022-12-03T02:16:32.326Z,82.63
2022-12-03T02:19:56.806Z,82.66
2022-12-03T02:23:27.712Z,82.14
2022-12-03T02:26:49.358Z,82.56
2022-12-03T02:30:31.042Z,82.12
2022-12-03T02:33:54.967Z,82.96
2022-12-03T02:37:24.285Z,82.36
2022-12-03T02:40:48.260Z,82.26
2022-12-03T02:44:10.116Z,82.54
2022-12-03T02:47:34.903Z,82.87
2022-12-03T02:51:01.298Z,82.55
2022-12-03T02:54:23.104Z,82.51
2022-12-03T02:57:49.117Z,82.71
2022-12-03T03:01:11.189Z,82.94
2022-12-03T03:04:35.315Z,82.46
2022-12-03T03:07:59.354Z,82.37
2022-12-03T03:11:23.521Z,82.39
2022-12-03T03:14:45.399Z,81.95
2022-12-03T03:18:12.300Z,82.55
2022-12-03T03:21:33.983Z,82.87
2022-12-03T03:24:58.039Z,82.53
2022-12-03T03:28:19.882Z,82.29
2022-12-03T03:31:45.266Z,81.82
2022-12-03T03:35:09.878Z,81.18
2022-12-03T03:38:32.139Z,82.29
2022-12-03T03:41:53.761Z,82.42
2022-12-03T03:45:25.696Z,82.53
2022-12-03T03:48:51.422Z,82.30
2022-12-03T03:52:13.424Z,81.49
2022-12-03T03:55:35.176Z,81.73
2022-12-03T03:58:56.851Z,81.07
2022-12-03T04:02:26.370Z,81.30
2022-12-03T04:05:51.015Z,81.61
2022-12-03T04:09:15.046Z,81.35
2022-12-03T04:12:55.135Z,80.94
2022-12-03T04:16:18.740Z,81.43
2022-12-03T04:19:40.462Z,81.45
2022-12-03T04:23:02.056Z,82.09
2022-12-03T04:26:45.124Z,81.75
2022-12-03T04:30:07.128Z,81.83
2022-12-03T04:33:49.601Z,81.57
2022-12-03T04:37:11.869Z,81.99
2022-12-03T04:40:51.727Z,82.06
2022-12-03T04:44:31.562Z,81.57
2022-12-03T04:47:56.557Z,81.92
2022-12-03T04:51:20.469Z,82.34
2022-12-03T04:54:42.634Z,82.52
2022-12-03T04:58:04.504Z,82.21
2022-12-03T05:01:26.270Z,82.79
2022-12-03T05:04:50.127Z,82.24
2022-12-03T05:08:11.770Z,83.19
2022-12-03T05:11:33.671Z,82.78
2022-12-03T05:14:57.736Z,82.71
2022-12-03T05:18:19.210Z,82.72
2022-12-03T05:21:43.209Z,83.64
2022-12-03T05:25:10.410Z,83.46
2022-12-03T05:28:34.957Z,83.65
2022-12-03T05:31:59.254Z,83.10
2022-12-03T05:35:23.186Z,83.23
2022-12-03T05:38:44.705Z,83.39
2022-12-03T05:42:32.601Z,82.93
2022-12-03T05:45:54.156Z,82.87
2022-12-03T05:49:18.202Z,82.98
2022-12-03T05:52:41.788Z,82.57
2022-12-03T05:56:03.378Z,82.46
2022-12-03T05:59:24.910Z,82.66
2022-12-03T06:02:46.675Z,82.85
2022-12-03T06:06:10.515Z,82.95
2022-12-03T06:09:32.068Z,83.03
2022-12-03T06:12:53.641Z,82.41
2022-12-03T06:16:19.776Z,82.22
2022-12-03T06:19:41.307Z,82.88
2022-12-03T06:23:03.029Z,82.82
2022-12-03T06:26:24.673Z,82.64
2022-12-03T06:29:48.619Z,83.09
2022-12-03T06:33:10.160Z,83.35
2022-12-03T06:36:34.266Z,83.33
2022-12-03T06:39:57.914Z,83.11
2022-12-03T06:43:19.495Z,83.65
2022-12-03T06:46:43.802Z,82.99
2022-12-03T06:50:06.931Z,83.47
2022-12-03T06:53:28.456Z,82.82
2022-12-03T06:56:52.546Z,82.41
2022-12-03T07:00:14.467Z,82.59
2022-12-03T07:03:38.600Z,82.64
2022-12-03T07:07:00.082Z,82.15
2022-12-03T07:10:22.329Z,81.99
2022-12-03T07:13:48.790Z,82.66
2022-12-03T07:17:10.339Z,82.82
2022-12-03T07:20:31.865Z,82.44
2022-12-03T07:23:55.844Z,82.34
2022-12-03T07:27:19.723Z,81.90
2022-12-03T07:30:46.144Z,82.64
2022-12-03T07:34:10.201Z,82.43
2022-12-03T07:37:34.567Z,81.80
2022-12-03T07:40:58.389Z,81.77
2022-12-03T07:44:22.080Z,82.48
2022-12-03T07:47:43.649Z,82.34
2022-12-03T07:51:05.582Z,81.88
2022-12-03T07:54:29.312Z,81.83
2022-12-03T07:57:51.215Z,81.33
2022-12-03T08:01:13.020Z,81.61
2022-12-03T08:04:34.657Z,81.06
2022-12-03T08:07:56.549Z,81.27
2022-12-03T08:11:23.207Z,79.96
2022-12-03T08:14:44.734Z,79.15
2022-12-03T08:18:23.119Z,79.42
2022-12-03T08:21:47.225Z,80.57
2022-12-03T08:25:25.557Z,79.88
2022-12-03T08:28:49.497Z,77.20
2022-12-03T08:32:13.849Z,77.64
2022-12-03T08:35:35.457Z,76.16
2022-12-03T08:39:00.679Z,75.27
2022-12-03T08:42:41.937Z,74.24
2022-12-03T08:46:03.604Z,73.46
2022-12-03T08:49:25.224Z,72.86
2022-12-03T08:52:52.795Z,70.99
2022-12-03T08:56:28.957Z,70.97
2022-12-03T08:59:56.039Z,71.94
2022-12-03T09:03:19.905Z,72.21
2022-12-03T09:06:43.997Z,72.78
2022-12-03T09:10:06.225Z,72.59
2022-12-03T09:13:30.122Z,72.39
2022-12-03T09:16:55.928Z,72.88
2022-12-03T09:20:20.143Z,72.47
2022-12-03T09:23:41.666Z,71.39
2022-12-03T09:27:03.449Z,71.31
2022-12-03T09:30:27.533Z,69.97
2022-12-03T09:33:49.121Z,70.04
2022-12-03T09:37:10.652Z,69.63
2022-12-03T09:40:32.445Z,68.42
2022-12-03T09:44:15.841Z,68.17
2022-12-03T09:47:35.992Z,69.19
2022-12-03T09:50:57.585Z,69.73
2022-12-03T09:54:27.293Z,69.64
2022-12-03T09:57:48.997Z,70.57
2022-12-03T10:01:15.370Z,70.97
2022-12-03T10:04:39.497Z,70.48
2022-12-03T10:08:22.281Z,70.52
2022-12-03T10:11:43.978Z,69.16
2022-12-03T10:15:06.303Z,67.95
2022-12-03T10:18:32.086Z,65.05
2022-12-03T10:21:58.366Z,62.57
2022-12-03T10:25:23.007Z,59.76
2022-12-03T10:28:47.090Z,55.80
2022-12-03T10:32:11.803Z,53.46
2022-12-03T10:35:39.215Z,51.76
2022-12-03T10:39:15.705Z,48.56
2022-12-03T10:42:39.467Z,48.82
2022-12-03T10:46:04.673Z,52.00
2022-12-03T10:49:26.921Z,54.36
2022-12-03T10:52:48.679Z,55.05
2022-12-03T10:56:19.681Z,55.50
2022-12-03T10:59:42.359Z,58.32
2022-12-03T11:03:04.172Z,58.00
2022-12-03T11:06:25.709Z,57.39
2022-12-03T11:09:50.014Z,58.59
2022-12-03T11:13:51.546Z,56.32
2022-12-03T11:17:13.107Z,55.37
2022-12-03T11:20:46.506Z,56.49
2022-12-03T11:24:21.084Z,55.07
2022-12-03T11:27:45.071Z,52.98
2022-12-03T11:31:12.504Z,50.93
2022-12-03T11:34:33.984Z,50.23
2022-12-03T11:38:15.491Z,49.52
2022-12-03T11:41:40.426Z,48.73
2022-12-03T11:45:04.564Z,48.15
2022-12-03T11:48:28.715Z,48.55
2022-12-03T11:51:50.710Z,47.27
2022-12-03T11:55:28.434Z,46.02
2022-12-03T11:59:00.692Z,47.54
2022-12-03T12:02:25.563Z,50.12
2022-12-03T12:05:47.134Z,52.69
2022-12-03T12:09:08.718Z,52.68
2022-12-03T12:12:38.617Z,52.99
2022-12-03T12:16:05.285Z,52.09
2022-12-03T12:19:43.226Z,52.25
2022-12-03T12:23:22.933Z,53.51
2022-12-03T12:26:52.432Z,53.02
2022-12-03T12:30:19.275Z,52.77
2022-12-03T12:33:41.004Z,52.59
2022-12-03T12:37:02.781Z,54.36
2022-12-03T12:40:28.015Z,56.04
2022-12-03T12:43:52.261Z,58.16
2022-12-03T12:47:13.879Z,59.73
2022-12-03T12:50:39.385Z,60.85
2022-12-03T12:54:01.770Z,60.85
2022-12-03T12:57:26.496Z,62.11
2022-12-03T13:00:55.291Z,62.47
2022-12-03T13:04:21.341Z,63.40
2022-12-03T13:07:45.728Z,64.12
2022-12-03T13:11:26.495Z,65.27
2022-12-03T13:14:54.782Z,66.03
2022-12-03T13:18:38.649Z,66.81
2022-12-03T13:22:19.271Z,68.01
2022-12-03T13:26:04.318Z,67.91
2022-12-03T13:29:26.693Z,67.78
2022-12-03T13:32:48.207Z,67.28
2022-12-03T13:36:16.535Z,68.62
2022-12-03T13:39:43.644Z,68.35
2022-12-03T13:43:15.005Z,68.53
2022-12-03T13:46:36.580Z,68.14
2022-12-03T13:50:04.172Z,67.91
2022-12-03T13:53:32.638Z,68.12
2022-12-03T13:56:56.696Z,68.13
2022-12-03T14:00:18.568Z,68.45
2022-12-03T14:03:42.503Z,68.72
2022-12-03T14:07:04.370Z,69.43
2022-12-03T14:10:25.950Z,69.86
2022-12-03T14:13:49.662Z,70.63
2022-12-03T14:17:11.759Z,70.08
2022-12-03T14:20:36.510Z,70.66
2022-12-03T14:23:58.050Z,70.61
2022-12-03T14:27:22.919Z,70.62
2022-12-03T14:30:44.444Z,70.41
2022-12-03T14:34:05.974Z,71.28
2022-12-03T14:37:27.752Z,71.24
2022-12-03T14:40:49.265Z,71.15
2022-12-03T14:44:10.836Z,72.00
2022-12-03T14:47:32.380Z,71.98
2022-12-03T14:50:53.995Z,72.18
2022-12-03T14:54:18.001Z,72.04
2022-12-03T14:57:39.677Z,72.48
2022-12-03T15:01:01.231Z,72.68
2022-12-03T15:04:23.018Z,72.40
2022-12-03T15:07:47.562Z,71.94
2022-12-03T15:11:09.131Z,72.91
2022-12-03T15:14:33.158Z,72.08
2022-12-03T15:17:57.743Z,72.92
2022-12-03T15:21:28.543Z,72.71
2022-12-03T15:24:59.995Z,73.36
2022-12-03T15:28:23.087Z,73.96
2022-12-03T15:31:46.946Z,73.00
2022-12-03T15:35:08.915Z,73.45
2022-12-03T15:38:33.063Z,74.09
2022-12-03T15:41:54.900Z,73.84
2022-12-03T15:45:18.750Z,74.31
2022-12-03T15:48:40.292Z,74.57
2022-12-03T15:52:01.874Z,74.99
2022-12-03T15:55:23.407Z,75.13
2022-12-03T15:58:47.259Z,75.01
2022-12-03T16:02:09.177Z,75.47
2022-12-03T16:05:30.803Z,74.70
2022-12-03T16:08:52.318Z,74.70
2022-12-03T16:12:13.837Z,75.57
2022-12-03T16:15:35.432Z,75.15
2022-12-03T16:18:57.049Z,75.02
2022-12-03T16:22:21.976Z,75.09
2022-12-03T16:25:45.791Z,75.16
2022-12-03T16:29:07.366Z,75.45
2022-12-03T16:32:28.956Z,75.65
2022-12-03T16:35:50.492Z,75.82
2022-12-03T16:39:13.109Z,75.46
2022-12-03T16:42:39.648Z,75.34
2022-12-03T16:46:21.120Z,75.21
2022-12-03T16:49:42.728Z,75.29
2022-12-03T16:53:06.601Z,75.66
2022-12-03T16:56:30.463Z,75.83
2022-12-03T16:59:53.077Z,75.82
2022-12-03T17:03:18.367Z,75.92
2022-12-03T17:06:39.959Z,75.78
2022-12-03T17:10:01.539Z,75.38
2022-12-03T17:13:23.339Z,75.66
2022-12-03T17:16:44.879Z,75.58
2022-12-03T17:20:09.378Z,75.56
2022-12-03T17:23:30.901Z,75.67
2022-12-03T17:26:55.085Z,76.03
2022-12-03T17:30:19.270Z,76.23
2022-12-03T17:33:40.845Z,76.77
2022-12-03T17:37:07.382Z,76.17
2022-12-03T17:40:29.034Z,76.25
2022-12-03T17:43:50.535Z,76.98
2022-12-03T17:47:14.535Z,77.04
2022-12-03T17:50:39.306Z,77.07
2022-12-03T17:54:03.338Z,76.57
2022-12-03T17:57:25.662Z,76.99
2022-12-03T18:00:48.639Z,77.31
2022-12-03T18:04:12.500Z,77.82
2022-12-03T18:07:34.256Z,77.35
2022-12-03T18:10:55.964Z,77.42
2022-12-03T18:14:17.517Z,77.38
2022-12-03T18:17:41.246Z,77.51
2022-12-03T18:21:05.425Z,77.32
2022-12-03T18:24:27.464Z,77.33
2022-12-03T18:27:54.193Z,77.90
2022-12-03T18:31:18.565Z,77.79
2022-12-03T18:34:42.704Z,77.90
2022-12-03T18:38:04.882Z,78.08
2022-12-03T18:41:26.841Z,77.91
2022-12-03T18:44:50.435Z,78.21
2022-12-03T18:48:13.914Z,77.41
2022-12-03T18:51:35.467Z,77.19
2022-12-03T18:54:57.700Z,77.15
2022-12-03T18:58:19.423Z,77.41
2022-12-03T19:01:45.804Z,77.94
2022-12-03T19:05:07.730Z,78.44
2022-12-03T19:08:31.901Z,78.72
2022-12-03T19:11:53.388Z,78.70
2022-12-03T19:15:15.029Z,78.30
2022-12-03T19:18:39.515Z,78.63
2022-12-03T19:22:01.049Z,78.89
2022-12-03T19:25:22.594Z,78.25
2022-12-03T19:28:44.188Z,78.39
2022-12-03T19:32:06.068Z,78.52
2022-12-03T19:35:30.750Z,78.78
2022-12-03T19:38:57.415Z,79.23
2022-12-03T19:42:19.375Z,79.00
2022-12-03T19:45:41.405Z,78.86
2022-12-03T19:49:06.224Z,78.76
2022-12-03T19:52:30.061Z,79.38
2022-12-03T19:55:51.670Z,78.89
2022-12-03T19:59:14.296Z,78.79
2022-12-03T20:02:35.989Z,78.86
2022-12-03T20:05:59.992Z,79.24
2022-12-03T20:09:22.636Z,79.36
2022-12-03T20:12:44.277Z,79.48
2022-12-03T20:16:09.390Z,79.61
2022-12-03T20:19:30.933Z,79.16
2022-12-03T20:22:53.043Z,79.31
2022-12-03T20:26:17.963Z,79.46
2022-12-03T20:29:39.636Z,79.89
2022-12-03T20:33:03.409Z,79.29
2022-12-03T20:36:28.769Z,79.43
2022-12-03T20:39:50.995Z,79.64
2022-12-03T20:43:12.842Z,79.26
2022-12-03T20:46:34.419Z,79.45
2022-12-03T20:49:58.302Z,79.08
2022-12-03T20:53:25.355Z,79.35
2022-12-03T20:56:47.218Z,79.87
2022-12-03T21:00:09.101Z,80.17
2022-12-03T21:03:32.935Z,79.94
2022-12-03T21:06:54.455Z,80.16
2022-12-03T21:10:34.667Z,80.05
2022-12-03T21:13:57.266Z,79.49
2022-12-03T21:17:19.464Z,79.59
2022-12-03T21:20:46.143Z,79.40
2022-12-03T21:24:08.796Z,79.95
2022-12-03T21:27:31.130Z,80.07
2022-12-03T21:30:52.902Z,80.28
2022-12-03T21:34:14.834Z,80.42
2022-12-03T21:37:36.344Z,80.45
2022-12-03T21:40:58.513Z,79.66
2022-12-03T21:44:23.262Z,79.94
2022-12-03T21:47:50.361Z,79.90
2022-12-03T21:51:14.331Z,79.75
2022-12-03T21:54:35.833Z,79.60
2022-12-03T21:57:57.357Z,79.84
2022-12-03T22:01:21.690Z,80.30
2022-12-03T22:04:43.400Z,80.75
2022-12-03T22:08:05.684Z,81.12
2022-12-03T22:11:27.296Z,80.60
2022-12-03T22:14:51.159Z,81.17
2022-12-03T22:18:12.701Z,80.67
2022-12-03T22:21:35.644Z,80.98
2022-12-03T22:24:57.313Z,80.97
2022-12-03T22:28:21.386Z,80.58
2022-12-03T22:31:43.012Z,80.92
2022-12-03T22:35:04.961Z,80.01
2022-12-03T22:38:28.324Z,80.48
2022-12-03T22:41:50.143Z,79.82
2022-12-03T22:45:17.061Z,79.85
2022-12-03T22:48:42.851Z,79.98
2022-12-03T22:52:07.246Z,79.94
2022-12-03T22:55:28.760Z,79.48
2022-12-03T22:58:51.061Z,79.74
2022-12-03T23:02:12.711Z,80.21
2022-12-03T23:05:37.079Z,79.85
2022-12-03T23:09:01.339Z,80.08
2022-12-03T23:12:22.867Z,79.71
2022-12-03T23:15:49.648Z,79.69
2022-12-03T23:19:11.664Z,79.97
2022-12-03T23:22:35.575Z,79.95
2022-12-03T23:26:08.408Z,79.93
2022-12-03T23:29:29.925Z,79.97
2022-12-03T23:32:52.488Z,80.42
2022-12-03T23:36:14.764Z,80.24
2022-12-03T23:39:36.336Z,80.71
2022-12-03T23:43:00.519Z,80.08
2022-12-03T23:46:26.039Z,80.54
2022-12-03T23:49:50.093Z,80.21
2022-12-03T23:53:11.665Z,80.56
2022-12-03T23:56:35.423Z,80.50
2022-12-03T23:59:59.297Z,80.47
